Accueil
METAR-TAF:

METAR-TAF

Aéroports :

Aéroport international de Kuala Lumpur

Kuala Lumpur, Malaisie

latitude: 02-44N, longitude: 101-42E, altitude: 21 m

Observation

Le bulletin a été fait il y a 23 minutes, à 01:30 UTC
Vent 1 kt de direction variable
Température 25°C
Humidité 89%
Pression 1010 hPa
Visibilité 10 km ou plus
Quelques nuages à une hauteur de 3000 ft

METAR: WMKK 220130Z VRB01KT 9999 FEW030 25/23 Q1010 NOSIG

Heure: 09:53 (01:53 UTC)

Prévision

Le bulletin a été fait il y a 2 heures et 53 minutes, à 23:00 UTC
Prévision valable du 22 à 00 UTC au 23 à 06 UTC
Vent 2 kt de direction variable
Visibilité: 9000 m
Nuages épars à une hauteur de 3000 ft
Temporairement
du 22 à 00 UTC au 22 à 03 UTC
Visibilité: 7000 m
Quelques nuages à une hauteur de 1000 ft
pluie faible,

TAF: WMKK 212300Z 2200/2306 VRB02KT 9000 SCT030 TEMPO 2200/2203 7000 -RA FEW010

Observations et prévisions météorologiques de plus de 4000 aéroports (messages METAR et TAF).

Les stations disponibles sont représentées par des disques jaunes et rouges sur la carte.

Passer la souris dessus pour voir le nom de la station.

Cliquer dessus pour voir les observations et prévisions météorologiques.

Pour changer de carte: cliquez sur les boutons verts avec une croix noire pour zoomer, sur le bouton vert avec un tiret pour effectuer un zoom arrière, ou sur les flèches vertes pour les cartes adjacentes.


METAR-TAF: